Aérodrome :
LOGIN :

S'inscrire | Disclaimer

   EN    FR    IT 

 










Légende :    VFR   VFR Marginal   IFR   IFR Intensif   IFR Très Intensif
Visi : 
Plafond : 
>= 8 km
>= 3000ft
5 à 8 km
1000 à 3000 ft
1500m à 5 km
500 à 1000 ft
800 à 1500m
200 à 500 ft
< 800m
< 200 ft
Symboles :   Orages  Brouillard  Fortes neiges  Fortes précipitations  Vent > 20 kt
SIGMETs :   Divers  Orages  Givrage  Turbulence  Onde Orograph.  Cendres Volcan.







- Altitude de l'aérodrome : 1197 ft
- Code IATA : SPM


ETAD - Spangdahlem Ab

DERNIER METAR :
  • 242318Z AUTO 12003KT 0400 R05/0500V0550 FG FEW000 14/14 A3006 RMK AO2 SLP162 $

METARs EXPIRÉS :
  • 242256Z AUTO 11004KT 0600 R05/0500V0750 FG CLR 14/14 A3006 RMK AO2 SLP162 T01410141 402080127 $
  • 242241Z AUTO 12003KT 1600 R05/0700VP1500 BR CLR 14/14 A3006 RMK AO2 VIS 1600V5000 VIS 0800 RWY23 SLP162 $
  • 242239Z AUTO 11003KT 2000 BR CLR 14/14 A3006 RMK AO2 VIS 2000V5000 SLP162 $
  • 242224Z AUTO 00000KT 2200 BR CLR 14/14 A3006 RMK AO2 VIS 0600V2200 SLP162 $
  • 242220Z AUTO 00000KT 0600 R05/0500VP1500 FG CLR 14/14 A3005 RMK AO2 SLP159 $
  • 242205Z AUTO 00000KT 1200 R05/0450VP1500 BR CLR 14/14 A3005 RMK AO2 VIS 1200V9999 SLP159 $
  • 242156Z AUTO 29003KT 9999 CLR 15/15 A3005 RMK AO2 SLP159 T01460146 $
  • 242056Z AUTO 00000KT 9999 SCT150 SCT170 BKN200 15/15 A3006 RMK AO2 RAE00DZB00E01 SLP162 P0000 60000 T01500150 51008 $

TAF AMD TAF ETAD
Valide du 24 à 20h jusqu'au 26 à 01h UTC


242004Z 2420/2601 07006KT 9999 SCT020 QNH3003INS
BECMG 2421/2422 09006KT 6000 BR SCT020 QNH3003INS
BECMG 2501/2502 08006KT 3200 BR SCT015 QNH3009INS
BECMG 2506/2507 09006KT 9999 NSW SCT020 QNH3006INS
BECMG 2521/2522 VRB06KT 6000 BR SCT030 QNH3009INS TX23/2514Z TN11/2504Z LAST NO AMDS AFT 2420 NEXT 2503
Pas de NOTAMs connus pour ce terrain.



MET'MAP, la Météo Aéronautique d'un coup d'oeil ! - Copyright ORBIFLY Décembre 2007 - Disclaimer

ORBIFLY MET'MAP TEAM :

Programmation & Développement : Alexandra Zaïnal
Conception & Développement : Baudouin d'Aumeries
Co-Programmation & Développement : Marc-Olivier Méhu
Soutien technique & logistique : Manuel Goepfert

Contact : metmap@orbifly.com




SOURCES & CREDITS :

   NOAA